sensor_id;sensor_type;location;lat;lon;timestamp;temperature;humidity
19868;DHT22;10096;51.112;6.776;2024-03-22T00:00:12;11.80;1.00
19868;DHT22;10096;51.112;6.776;2024-03-22T00:02:40;11.80;1.00
19868;DHT22;10096;51.112;6.776;2024-03-22T00:05:09;11.80;1.00
19868;DHT22;10096;51.112;6.776;2024-03-22T00:07:35;11.90;1.00
19868;DHT22;10096;51.112;6.776;2024-03-22T00:10:07;11.80;1.00
19868;DHT22;10096;51.112;6.776;2024-03-22T00:12:34;11.80;1.00
19868;DHT22;10096;51.112;6.776;2024-03-22T00:15:01;11.90;1.00
19868;DHT22;10096;51.112;6.776;2024-03-22T00:17:31;11.70;1.00
19868;DHT22;10096;51.112;6.776;2024-03-22T00:20:00;11.80;1.00
19868;DHT22;10096;51.112;6.776;2024-03-22T00:22:26;11.70;1.00
19868;DHT22;10096;51.112;6.776;2024-03-22T00:24:53;11.60;1.00
19868;DHT22;10096;51.112;6.776;2024-03-22T00:27:19;11.60;1.00
19868;DHT22;10096;51.112;6.776;2024-03-22T00:29:45;11.60;1.00
19868;DHT22;10096;51.112;6.776;2024-03-22T00:32:11;11.80;1.00
19868;DHT22;10096;51.112;6.776;2024-03-22T00:34:38;11.50;1.00
19868;DHT22;10096;51.112;6.776;2024-03-22T00:37:05;11.50;1.00
19868;DHT22;10096;51.112;6.776;2024-03-22T00:39:33;11.50;1.00
19868;DHT22;10096;51.112;6.776;2024-03-22T00:42:02;11.60;1.00
19868;DHT22;10096;51.112;6.776;2024-03-22T00:44:30;11.50;1.00
19868;DHT22;10096;51.112;6.776;2024-03-22T00:46:57;11.70;1.00
19868;DHT22;10096;51.112;6.776;2024-03-22T00:49:23;11.40;1.00
19868;DHT22;10096;51.112;6.776;2024-03-22T00:51:50;11.40;1.00
19868;DHT22;10096;51.112;6.776;2024-03-22T00:54:24;11.40;1.00
19868;DHT22;10096;51.112;6.776;2024-03-22T00:56:50;11.50;1.00
19868;DHT22;10096;51.112;6.776;2024-03-22T00:59:17;11.60;1.00
19868;DHT22;10096;51.112;6.776;2024-03-22T01:01:43;11.50;1.00
19868;DHT22;10096;51.112;6.776;2024-03-22T01:04:11;11.60;1.00
19868;DHT22;10096;51.112;6.776;2024-03-22T01:06:38;11.40;1.00
19868;DHT22;10096;51.112;6.776;2024-03-22T01:09:06;11.40;1.00
19868;DHT22;10096;51.112;6.776;2024-03-22T01:11:38;11.50;1.00
19868;DHT22;10096;51.112;6.776;2024-03-22T01:14:06;11.60;1.00
19868;DHT22;10096;51.112;6.776;2024-03-22T01:16:36;11.40;1.00
19868;DHT22;10096;51.112;6.776;2024-03-22T01:19:03;11.50;1.00
19868;DHT22;10096;51.112;6.776;2024-03-22T01:21:30;11.60;1.00
19868;DHT22;10096;51.112;6.776;2024-03-22T01:24:00;11.60;1.00
19868;DHT22;10096;51.112;6.776;2024-03-22T01:26:26;11.70;1.00
19868;DHT22;10096;51.112;6.776;2024-03-22T01:28:55;11.80;1.00
19868;DHT22;10096;51.112;6.776;2024-03-22T01:31:21;11.60;1.00
19868;DHT22;10096;51.112;6.776;2024-03-22T01:33:47;11.70;1.00
19868;DHT22;10096;51.112;6.776;2024-03-22T01:36:13;11.70;1.00
19868;DHT22;10096;51.112;6.776;2024-03-22T01:38:40;11.70;1.00
19868;DHT22;10096;51.112;6.776;2024-03-22T01:41:06;11.60;1.00
19868;DHT22;10096;51.112;6.776;2024-03-22T01:43:34;11.60;1.00
19868;DHT22;10096;51.112;6.776;2024-03-22T01:46:08;11.60;1.00
19868;DHT22;10096;51.112;6.776;2024-03-22T01:48:37;11.60;1.00
19868;DHT22;10096;51.112;6.776;2024-03-22T01:51:05;11.80;1.00
19868;DHT22;10096;51.112;6.776;2024-03-22T01:53:35;11.60;1.00
19868;DHT22;10096;51.112;6.776;2024-03-22T01:56:01;11.60;1.00
19868;DHT22;10096;51.112;6.776;2024-03-22T01:58:28;11.50;1.00
19868;DHT22;10096;51.112;6.776;2024-03-22T02:00:57;11.50;1.00
19868;DHT22;10096;51.112;6.776;2024-03-22T02:03:26;11.50;1.00
19868;DHT22;10096;51.112;6.776;2024-03-22T02:05:52;11.50;1.00
19868;DHT22;10096;51.112;6.776;2024-03-22T02:08:19;11.50;1.00
19868;DHT22;10096;51.112;6.776;2024-03-22T02:10:45;11.50;1.00
19868;DHT22;10096;51.112;6.776;2024-03-22T02:13:17;11.50;1.00
19868;DHT22;10096;51.112;6.776;2024-03-22T02:15:48;11.50;1.00
19868;DHT22;10096;51.112;6.776;2024-03-22T02:18:18;11.40;1.00
19868;DHT22;10096;51.112;6.776;2024-03-22T02:20:47;11.50;1.00
19868;DHT22;10096;51.112;6.776;2024-03-22T02:23:13;11.60;1.00
19868;DHT22;10096;51.112;6.776;2024-03-22T02:25:44;11.50;1.00
19868;DHT22;10096;51.112;6.776;2024-03-22T02:28:09;11.50;1.00
19868;DHT22;10096;51.112;6.776;2024-03-22T02:30:42;11.60;1.00
19868;DHT22;10096;51.112;6.776;2024-03-22T02:33:08;11.50;1.00
19868;DHT22;10096;51.112;6.776;2024-03-22T02:35:36;11.60;1.00
19868;DHT22;10096;51.112;6.776;2024-03-22T02:38:03;11.50;1.00
19868;DHT22;10096;51.112;6.776;2024-03-22T02:40:32;11.70;1.00
19868;DHT22;10096;51.112;6.776;2024-03-22T02:43:01;11.60;1.00
19868;DHT22;10096;51.112;6.776;2024-03-22T02:45:31;11.80;1.00
19868;DHT22;10096;51.112;6.776;2024-03-22T02:48:00;11.70;1.00
19868;DHT22;10096;51.112;6.776;2024-03-22T02:50:32;11.70;1.00
19868;DHT22;10096;51.112;6.776;2024-03-22T02:53:01;11.60;1.00
19868;DHT22;10096;51.112;6.776;2024-03-22T02:55:30;11.80;99.90
19868;DHT22;10096;51.112;6.776;2024-03-22T02:58:03;11.90;99.90
19868;DHT22;10096;51.112;6.776;2024-03-22T03:00:30;11.90;99.90
19868;DHT22;10096;51.112;6.776;2024-03-22T03:03:08;11.80;99.90
19868;DHT22;10096;51.112;6.776;2024-03-22T03:05:41;12.00;99.90
19868;DHT22;10096;51.112;6.776;2024-03-22T03:08:07;12.00;99.90
19868;DHT22;10096;51.112;6.776;2024-03-22T03:10:34;11.90;99.90
19868;DHT22;10096;51.112;6.776;2024-03-22T03:13:02;11.90;99.90
19868;DHT22;10096;51.112;6.776;2024-03-22T03:15:30;11.80;99.90
19868;DHT22;10096;51.112;6.776;2024-03-22T03:17:57;11.70;99.90
19868;DHT22;10096;51.112;6.776;2024-03-22T03:20:25;11.60;1.00
19868;DHT22;10096;51.112;6.776;2024-03-22T03:22:52;11.60;1.00
19868;DHT22;10096;51.112;6.776;2024-03-22T03:25:19;11.70;1.00
19868;DHT22;10096;51.112;6.776;2024-03-22T03:27:45;11.60;1.00
19868;DHT22;10096;51.112;6.776;2024-03-22T03:30:19;11.50;1.00
19868;DHT22;10096;51.112;6.776;2024-03-22T03:32:50;11.40;1.00
19868;DHT22;10096;51.112;6.776;2024-03-22T03:35:18;11.50;1.00
19868;DHT22;10096;51.112;6.776;2024-03-22T03:37:45;11.60;1.00
19868;DHT22;10096;51.112;6.776;2024-03-22T03:40:14;11.30;1.00
19868;DHT22;10096;51.112;6.776;2024-03-22T03:42:41;11.40;1.00
19868;DHT22;10096;51.112;6.776;2024-03-22T03:45:08;11.40;1.00
19868;DHT22;10096;51.112;6.776;2024-03-22T03:47:36;11.40;1.00
19868;DHT22;10096;51.112;6.776;2024-03-22T03:50:03;11.40;1.00
19868;DHT22;10096;51.112;6.776;2024-03-22T03:52:29;11.50;1.00
19868;DHT22;10096;51.112;6.776;2024-03-22T03:54:59;11.60;1.00
19868;DHT22;10096;51.112;6.776;2024-03-22T03:57:26;11.60;1.00
19868;DHT22;10096;51.112;6.776;2024-03-22T03:59:57;11.50;1.00
19868;DHT22;10096;51.112;6.776;2024-03-22T04:02:24;11.30;1.00
19868;DHT22;10096;51.112;6.776;2024-03-22T04:04:57;11.40;1.00
19868;DHT22;10096;51.112;6.776;2024-03-22T04:07:24;11.30;1.00
19868;DHT22;10096;51.112;6.776;2024-03-22T04:09:55;11.20;1.00
19868;DHT22;10096;51.112;6.776;2024-03-22T04:12:23;11.20;1.00
19868;DHT22;10096;51.112;6.776;2024-03-22T04:14:52;11.20;1.00
19868;DHT22;10096;51.112;6.776;2024-03-22T04:17:18;11.00;1.00
19868;DHT22;10096;51.112;6.776;2024-03-22T04:19:46;11.00;1.00
19868;DHT22;10096;51.112;6.776;2024-03-22T04:22:16;11.00;1.00
19868;DHT22;10096;51.112;6.776;2024-03-22T04:24:43;10.90;1.00
19868;DHT22;10096;51.112;6.776;2024-03-22T04:27:11;10.90;1.00
19868;DHT22;10096;51.112;6.776;2024-03-22T04:29:40;10.90;1.00
19868;DHT22;10096;51.112;6.776;2024-03-22T04:32:06;10.90;1.00
19868;DHT22;10096;51.112;6.776;2024-03-22T04:34:33;11.00;1.00
19868;DHT22;10096;51.112;6.776;2024-03-22T04:37:00;11.10;1.00
19868;DHT22;10096;51.112;6.776;2024-03-22T04:39:30;10.80;1.00
19868;DHT22;10096;51.112;6.776;2024-03-22T04:41:57;10.90;1.00
19868;DHT22;10096;51.112;6.776;2024-03-22T04:44:24;10.90;1.00
19868;DHT22;10096;51.112;6.776;2024-03-22T04:46:51;11.00;1.00
19868;DHT22;10096;51.112;6.776;2024-03-22T04:49:17;11.10;1.00
19868;DHT22;10096;51.112;6.776;2024-03-22T04:51:44;11.10;1.00
19868;DHT22;10096;51.112;6.776;2024-03-22T04:54:10;10.90;1.00
19868;DHT22;10096;51.112;6.776;2024-03-22T04:56:39;11.10;1.00
19868;DHT22;10096;51.112;6.776;2024-03-22T04:59:05;11.30;1.00
19868;DHT22;10096;51.112;6.776;2024-03-22T05:01:33;11.30;1.00
19868;DHT22;10096;51.112;6.776;2024-03-22T05:03:59;11.40;1.00
19868;DHT22;10096;51.112;6.776;2024-03-22T05:06:30;11.30;1.00
19868;DHT22;10096;51.112;6.776;2024-03-22T05:08:56;11.30;1.00
19868;DHT22;10096;51.112;6.776;2024-03-22T05:11:23;11.20;1.00
19868;DHT22;10096;51.112;6.776;2024-03-22T05:13:53;11.20;1.00
19868;DHT22;10096;51.112;6.776;2024-03-22T05:16:22;11.20;1.00
19868;DHT22;10096;51.112;6.776;2024-03-22T05:18:49;11.40;1.00
19868;DHT22;10096;51.112;6.776;2024-03-22T05:21:16;11.40;1.00
19868;DHT22;10096;51.112;6.776;2024-03-22T05:23:48;11.50;1.00
19868;DHT22;10096;51.112;6.776;2024-03-22T05:26:14;11.50;1.00
19868;DHT22;10096;51.112;6.776;2024-03-22T05:28:40;11.60;1.00
19868;DHT22;10096;51.112;6.776;2024-03-22T05:31:09;11.60;1.00
19868;DHT22;10096;51.112;6.776;2024-03-22T05:33:35;11.50;1.00
19868;DHT22;10096;51.112;6.776;2024-03-22T05:36:03;11.60;1.00
19868;DHT22;10096;51.112;6.776;2024-03-22T05:38:34;11.60;1.00
19868;DHT22;10096;51.112;6.776;2024-03-22T05:41:07;11.70;1.00
19868;DHT22;10096;51.112;6.776;2024-03-22T05:43:37;11.70;1.00
19868;DHT22;10096;51.112;6.776;2024-03-22T05:46:05;12.00;1.00
19868;DHT22;10096;51.112;6.776;2024-03-22T05:48:39;12.00;1.00
19868;DHT22;10096;51.112;6.776;2024-03-22T05:51:06;12.10;1.00
19868;DHT22;10096;51.112;6.776;2024-03-22T05:53:37;12.10;1.00
19868;DHT22;10096;51.112;6.776;2024-03-22T05:56:04;12.00;1.00
19868;DHT22;10096;51.112;6.776;2024-03-22T05:58:30;12.10;1.00
19868;DHT22;10096;51.112;6.776;2024-03-22T06:00:59;12.30;99.90
19868;DHT22;10096;51.112;6.776;2024-03-22T06:03:24;12.30;99.90
19868;DHT22;10096;51.112;6.776;2024-03-22T06:05:53;12.30;99.90
19868;DHT22;10096;51.112;6.776;2024-03-22T06:08:25;12.40;99.90
19868;DHT22;10096;51.112;6.776;2024-03-22T06:10:57;12.50;99.90
19868;DHT22;10096;51.112;6.776;2024-03-22T06:13:23;12.70;99.90
19868;DHT22;10096;51.112;6.776;2024-03-22T06:15:51;12.80;99.90
19868;DHT22;10096;51.112;6.776;2024-03-22T06:18:19;12.60;99.90
19868;DHT22;10096;51.112;6.776;2024-03-22T06:20:48;12.60;99.90
19868;DHT22;10096;51.112;6.776;2024-03-22T06:23:15;12.60;99.90
19868;DHT22;10096;51.112;6.776;2024-03-22T06:25:51;12.80;99.90
19868;DHT22;10096;51.112;6.776;2024-03-22T06:28:18;13.00;99.90
19868;DHT22;10096;51.112;6.776;2024-03-22T06:30:45;12.80;99.90
19868;DHT22;10096;51.112;6.776;2024-03-22T06:33:10;12.90;99.90
19868;DHT22;10096;51.112;6.776;2024-03-22T06:35:37;13.10;99.90
19868;DHT22;10096;51.112;6.776;2024-03-22T06:38:04;13.20;99.90
19868;DHT22;10096;51.112;6.776;2024-03-22T06:40:36;13.20;99.90
19868;DHT22;10096;51.112;6.776;2024-03-22T06:43:02;13.70;99.90
19868;DHT22;10096;51.112;6.776;2024-03-22T06:45:29;13.70;99.90
19868;DHT22;10096;51.112;6.776;2024-03-22T06:47:55;13.80;99.90
19868;DHT22;10096;51.112;6.776;2024-03-22T06:50:22;14.40;99.90
19868;DHT22;10096;51.112;6.776;2024-03-22T06:52:53;14.30;99.90
19868;DHT22;10096;51.112;6.776;2024-03-22T06:55:20;14.20;99.90
19868;DHT22;10096;51.112;6.776;2024-03-22T06:57:48;14.40;99.90
19868;DHT22;10096;51.112;6.776;2024-03-22T07:00:16;14.60;99.90
19868;DHT22;10096;51.112;6.776;2024-03-22T07:02:43;14.70;99.90
19868;DHT22;10096;51.112;6.776;2024-03-22T07:05:11;14.90;99.90
19868;DHT22;10096;51.112;6.776;2024-03-22T07:07:37;15.20;99.90
19868;DHT22;10096;51.112;6.776;2024-03-22T07:10:09;15.30;99.90
19868;DHT22;10096;51.112;6.776;2024-03-22T07:12:38;15.40;99.90
19868;DHT22;10096;51.112;6.776;2024-03-22T07:15:09;15.30;99.90
19868;DHT22;10096;51.112;6.776;2024-03-22T07:17:35;15.10;99.90
19868;DHT22;10096;51.112;6.776;2024-03-22T07:20:02;15.00;99.90
19868;DHT22;10096;51.112;6.776;2024-03-22T07:22:29;14.90;99.90
19868;DHT22;10096;51.112;6.776;2024-03-22T07:24:56;14.80;99.90
19868;DHT22;10096;51.112;6.776;2024-03-22T07:27:25;14.70;99.90
19868;DHT22;10096;51.112;6.776;2024-03-22T07:29:55;14.90;99.90
19868;DHT22;10096;51.112;6.776;2024-03-22T07:32:22;14.80;99.90
19868;DHT22;10096;51.112;6.776;2024-03-22T07:34:49;15.10;99.90
19868;DHT22;10096;51.112;6.776;2024-03-22T07:37:17;15.20;99.90
19868;DHT22;10096;51.112;6.776;2024-03-22T07:39:48;15.30;99.90
19868;DHT22;10096;51.112;6.776;2024-03-22T07:42:14;15.10;99.90
19868;DHT22;10096;51.112;6.776;2024-03-22T07:44:41;15.70;99.90
19868;DHT22;10096;51.112;6.776;2024-03-22T07:47:07;15.70;99.90
19868;DHT22;10096;51.112;6.776;2024-03-22T07:49:39;16.10;99.90
19868;DHT22;10096;51.112;6.776;2024-03-22T07:52:05;15.90;99.90
19868;DHT22;10096;51.112;6.776;2024-03-22T07:54:32;16.00;99.90
19868;DHT22;10096;51.112;6.776;2024-03-22T07:56:58;16.00;99.90
19868;DHT22;10096;51.112;6.776;2024-03-22T07:59:25;16.30;99.90
19868;DHT22;10096;51.112;6.776;2024-03-22T08:01:51;16.60;99.90
19868;DHT22;10096;51.112;6.776;2024-03-22T08:04:18;16.50;99.90
19868;DHT22;10096;51.112;6.776;2024-03-22T08:06:46;16.90;99.90
19868;DHT22;10096;51.112;6.776;2024-03-22T08:09:12;17.20;99.90
19868;DHT22;10096;51.112;6.776;2024-03-22T08:11:41;17.30;99.90
19868;DHT22;10096;51.112;6.776;2024-03-22T08:14:10;17.30;99.90
19868;DHT22;10096;51.112;6.776;2024-03-22T08:16:35;17.90;99.90
19868;DHT22;10096;51.112;6.776;2024-03-22T08:19:03;17.80;99.90
19868;DHT22;10096;51.112;6.776;2024-03-22T08:21:34;17.60;99.90
19868;DHT22;10096;51.112;6.776;2024-03-22T08:24:18;17.20;99.90
19868;DHT22;10096;51.112;6.776;2024-03-22T08:26:45;17.40;99.90
19868;DHT22;10096;51.112;6.776;2024-03-22T08:29:14;17.10;99.90
19868;DHT22;10096;51.112;6.776;2024-03-22T08:31:43;17.10;99.90
19868;DHT22;10096;51.112;6.776;2024-03-22T08:34:09;17.20;99.90
19868;DHT22;10096;51.112;6.776;2024-03-22T08:36:35;17.10;99.90
19868;DHT22;10096;51.112;6.776;2024-03-22T08:39:02;17.00;99.90
19868;DHT22;10096;51.112;6.776;2024-03-22T08:41:32;17.10;99.90
19868;DHT22;10096;51.112;6.776;2024-03-22T08:43:58;17.20;99.90
19868;DHT22;10096;51.112;6.776;2024-03-22T08:46:24;17.30;99.90
19868;DHT22;10096;51.112;6.776;2024-03-22T08:48:52;17.40;99.90
19868;DHT22;10096;51.112;6.776;2024-03-22T08:51:21;17.30;99.90
19868;DHT22;10096;51.112;6.776;2024-03-22T08:53:51;17.30;99.90
19868;DHT22;10096;51.112;6.776;2024-03-22T08:56:18;17.40;99.90
19868;DHT22;10096;51.112;6.776;2024-03-22T08:58:49;17.40;99.90
19868;DHT22;10096;51.112;6.776;2024-03-22T09:01:16;17.80;99.90
19868;DHT22;10096;51.112;6.776;2024-03-22T09:03:45;17.50;99.90
19868;DHT22;10096;51.112;6.776;2024-03-22T09:06:12;17.30;99.90
19868;DHT22;10096;51.112;6.776;2024-03-22T09:08:38;17.10;99.90
19868;DHT22;10096;51.112;6.776;2024-03-22T09:11:05;17.20;99.90
19868;DHT22;10096;51.112;6.776;2024-03-22T09:13:32;17.30;99.90
19868;DHT22;10096;51.112;6.776;2024-03-22T09:16:09;17.50;99.90
19868;DHT22;10096;51.112;6.776;2024-03-22T09:18:38;17.60;99.90
19868;DHT22;10096;51.112;6.776;2024-03-22T09:21:04;18.00;99.90
19868;DHT22;10096;51.112;6.776;2024-03-22T09:23:34;18.00;99.90
19868;DHT22;10096;51.112;6.776;2024-03-22T09:26:03;17.90;99.90
19868;DHT22;10096;51.112;6.776;2024-03-22T09:28:30;17.80;99.90
19868;DHT22;10096;51.112;6.776;2024-03-22T09:30:57;17.90;99.90
19868;DHT22;10096;51.112;6.776;2024-03-22T09:33:28;17.90;99.90
19868;DHT22;10096;51.112;6.776;2024-03-22T09:35:55;18.20;99.90
19868;DHT22;10096;51.112;6.776;2024-03-22T09:38:24;18.10;99.90
19868;DHT22;10096;51.112;6.776;2024-03-22T09:41:00;18.00;99.90
19868;DHT22;10096;51.112;6.776;2024-03-22T09:43:31;18.20;99.90
19868;DHT22;10096;51.112;6.776;2024-03-22T09:46:01;18.40;99.90
19868;DHT22;10096;51.112;6.776;2024-03-22T09:48:37;18.30;99.90
19868;DHT22;10096;51.112;6.776;2024-03-22T09:51:03;18.40;99.90
19868;DHT22;10096;51.112;6.776;2024-03-22T09:53:32;18.20;99.90
19868;DHT22;10096;51.112;6.776;2024-03-22T09:55:59;18.30;99.90
19868;DHT22;10096;51.112;6.776;2024-03-22T09:58:27;18.20;99.90
19868;DHT22;10096;51.112;6.776;2024-03-22T10:00:54;18.30;99.90
19868;DHT22;10096;51.112;6.776;2024-03-22T10:03:26;18.00;99.90
19868;DHT22;10096;51.112;6.776;2024-03-22T10:05:53;17.90;99.90
19868;DHT22;10096;51.112;6.776;2024-03-22T10:08:20;17.90;99.90
19868;DHT22;10096;51.112;6.776;2024-03-22T10:10:46;18.00;99.90
19868;DHT22;10096;51.112;6.776;2024-03-22T10:13:15;17.90;99.90
19868;DHT22;10096;51.112;6.776;2024-03-22T10:15:41;17.80;99.90
19868;DHT22;10096;51.112;6.776;2024-03-22T10:18:10;17.70;99.90
19868;DHT22;10096;51.112;6.776;2024-03-22T10:20:36;17.70;99.90
19868;DHT22;10096;51.112;6.776;2024-03-22T10:23:05;17.90;99.90
19868;DHT22;10096;51.112;6.776;2024-03-22T10:25:33;17.80;99.90
19868;DHT22;10096;51.112;6.776;2024-03-22T10:28:01;17.50;99.90
19868;DHT22;10096;51.112;6.776;2024-03-22T10:30:27;17.50;99.90
19868;DHT22;10096;51.112;6.776;2024-03-22T10:32:56;17.50;99.90
19868;DHT22;10096;51.112;6.776;2024-03-22T10:35:23;17.70;99.90
19868;DHT22;10096;51.112;6.776;2024-03-22T10:37:52;17.80;99.90
19868;DHT22;10096;51.112;6.776;2024-03-22T10:40:20;17.80;99.90
19868;DHT22;10096;51.112;6.776;2024-03-22T10:42:47;18.10;99.90
19868;DHT22;10096;51.112;6.776;2024-03-22T10:45:14;18.20;99.90
19868;DHT22;10096;51.112;6.776;2024-03-22T10:47:41;18.30;99.90
19868;DHT22;10096;51.112;6.776;2024-03-22T10:50:09;18.30;99.90
19868;DHT22;10096;51.112;6.776;2024-03-22T10:52:52;18.20;99.90
19868;DHT22;10096;51.112;6.776;2024-03-22T10:55:30;17.90;99.90
19868;DHT22;10096;51.112;6.776;2024-03-22T10:57:58;17.80;99.90
19868;DHT22;10096;51.112;6.776;2024-03-22T11:00:28;17.50;99.90
19868;DHT22;10096;51.112;6.776;2024-03-22T11:03:02;17.60;99.90
19868;DHT22;10096;51.112;6.776;2024-03-22T11:05:28;17.70;99.90
19868;DHT22;10096;51.112;6.776;2024-03-22T11:08:04;17.70;99.90
19868;DHT22;10096;51.112;6.776;2024-03-22T11:10:49;17.70;99.90
19868;DHT22;10096;51.112;6.776;2024-03-22T11:13:17;17.60;99.90
19868;DHT22;10096;51.112;6.776;2024-03-22T11:15:48;17.50;99.90
19868;DHT22;10096;51.112;6.776;2024-03-22T11:18:15;17.40;99.90
19868;DHT22;10096;51.112;6.776;2024-03-22T11:20:46;17.30;99.90
19868;DHT22;10096;51.112;6.776;2024-03-22T11:23:13;17.50;99.90
19868;DHT22;10096;51.112;6.776;2024-03-22T11:25:42;17.40;99.90
19868;DHT22;10096;51.112;6.776;2024-03-22T11:28:09;17.60;99.90
19868;DHT22;10096;51.112;6.776;2024-03-22T11:30:35;17.30;99.90
19868;DHT22;10096;51.112;6.776;2024-03-22T11:33:04;17.40;99.90
19868;DHT22;10096;51.112;6.776;2024-03-22T11:35:31;17.70;99.90
19868;DHT22;10096;51.112;6.776;2024-03-22T11:37:59;17.80;99.90
19868;DHT22;10096;51.112;6.776;2024-03-22T11:40:26;17.80;99.90
19868;DHT22;10096;51.112;6.776;2024-03-22T11:42:55;17.90;99.90
19868;DHT22;10096;51.112;6.776;2024-03-22T11:45:24;17.80;99.90
19868;DHT22;10096;51.112;6.776;2024-03-22T11:47:52;17.90;99.90
19868;DHT22;10096;51.112;6.776;2024-03-22T11:50:19;17.80;99.90
19868;DHT22;10096;51.112;6.776;2024-03-22T11:52:50;18.10;99.90
19868;DHT22;10096;51.112;6.776;2024-03-22T11:55:19;18.20;99.90
19868;DHT22;10096;51.112;6.776;2024-03-22T11:58:01;18.40;99.90
19868;DHT22;10096;51.112;6.776;2024-03-22T12:00:27;18.60;99.90
19868;DHT22;10096;51.112;6.776;2024-03-22T12:02:57;18.40;99.90
19868;DHT22;10096;51.112;6.776;2024-03-22T12:05:23;18.50;99.90
19868;DHT22;10096;51.112;6.776;2024-03-22T12:07:56;18.80;99.90
19868;DHT22;10096;51.112;6.776;2024-03-22T12:10:22;18.80;99.90
19868;DHT22;10096;51.112;6.776;2024-03-22T12:12:53;18.70;99.90
19868;DHT22;10096;51.112;6.776;2024-03-22T12:15:25;18.50;99.90
19868;DHT22;10096;51.112;6.776;2024-03-22T12:17:52;18.50;99.90
19868;DHT22;10096;51.112;6.776;2024-03-22T12:20:19;18.60;99.90
19868;DHT22;10096;51.112;6.776;2024-03-22T12:22:49;18.70;99.90
19868;DHT22;10096;51.112;6.776;2024-03-22T12:25:15;18.60;99.90
19868;DHT22;10096;51.112;6.776;2024-03-22T12:27:42;18.60;99.90
19868;DHT22;10096;51.112;6.776;2024-03-22T12:30:12;18.60;99.90
19868;DHT22;10096;51.112;6.776;2024-03-22T12:32:39;18.50;99.90
19868;DHT22;10096;51.112;6.776;2024-03-22T12:35:05;18.50;99.90
19868;DHT22;10096;51.112;6.776;2024-03-22T12:37:33;18.50;99.90
19868;DHT22;10096;51.112;6.776;2024-03-22T12:40:06;18.30;99.90
19868;DHT22;10096;51.112;6.776;2024-03-22T12:42:35;18.20;99.90
19868;DHT22;10096;51.112;6.776;2024-03-22T12:45:00;18.20;99.90
19868;DHT22;10096;51.112;6.776;2024-03-22T12:47:29;18.30;99.90
19868;DHT22;10096;51.112;6.776;2024-03-22T12:49:57;18.30;99.90
19868;DHT22;10096;51.112;6.776;2024-03-22T12:52:30;18.40;99.90
19868;DHT22;10096;51.112;6.776;2024-03-22T12:54:56;18.50;99.90
19868;DHT22;10096;51.112;6.776;2024-03-22T12:57:23;18.20;99.90
19868;DHT22;10096;51.112;6.776;2024-03-22T12:59:49;18.10;99.90
19868;DHT22;10096;51.112;6.776;2024-03-22T13:02:18;18.00;99.90
19868;DHT22;10096;51.112;6.776;2024-03-22T13:04:46;18.10;99.90
19868;DHT22;10096;51.112;6.776;2024-03-22T13:07:14;18.30;99.90
19868;DHT22;10096;51.112;6.776;2024-03-22T13:09:43;18.00;99.90
19868;DHT22;10096;51.112;6.776;2024-03-22T13:12:12;17.90;99.90
19868;DHT22;10096;51.112;6.776;2024-03-22T13:14:38;17.90;99.90
19868;DHT22;10096;51.112;6.776;2024-03-22T13:17:05;18.30;99.90
19868;DHT22;10096;51.112;6.776;2024-03-22T13:19:32;18.40;99.90
19868;DHT22;10096;51.112;6.776;2024-03-22T13:22:05;18.40;99.90
19868;DHT22;10096;51.112;6.776;2024-03-22T13:24:33;18.40;99.90
19868;DHT22;10096;51.112;6.776;2024-03-22T13:27:04;18.30;99.90
19868;DHT22;10096;51.112;6.776;2024-03-22T13:29:30;18.30;99.90
19868;DHT22;10096;51.112;6.776;2024-03-22T13:31:59;18.30;99.90
19868;DHT22;10096;51.112;6.776;2024-03-22T13:34:24;18.30;99.90
19868;DHT22;10096;51.112;6.776;2024-03-22T13:36:54;18.40;99.90
19868;DHT22;10096;51.112;6.776;2024-03-22T13:39:26;18.30;99.90
19868;DHT22;10096;51.112;6.776;2024-03-22T13:42:04;17.70;99.90
19868;DHT22;10096;51.112;6.776;2024-03-22T13:44:32;17.70;99.90
19868;DHT22;10096;51.112;6.776;2024-03-22T13:47:02;17.60;99.90
19868;DHT22;10096;51.112;6.776;2024-03-22T13:49:30;17.50;99.90
19868;DHT22;10096;51.112;6.776;2024-03-22T13:51:58;17.30;99.90
19868;DHT22;10096;51.112;6.776;2024-03-22T13:54:27;17.30;99.90
19868;DHT22;10096;51.112;6.776;2024-03-22T13:56:54;17.10;99.90
19868;DHT22;10096;51.112;6.776;2024-03-22T13:59:22;17.10;99.90
19868;DHT22;10096;51.112;6.776;2024-03-22T14:01:49;17.30;99.90
19868;DHT22;10096;51.112;6.776;2024-03-22T14:04:21;17.30;99.90
19868;DHT22;10096;51.112;6.776;2024-03-22T14:06:48;17.00;99.90
19868;DHT22;10096;51.112;6.776;2024-03-22T14:09:17;17.10;99.90
19868;DHT22;10096;51.112;6.776;2024-03-22T14:11:47;17.10;99.90
19868;DHT22;10096;51.112;6.776;2024-03-22T14:14:14;17.00;99.90
19868;DHT22;10096;51.112;6.776;2024-03-22T14:16:44;16.90;99.90
19868;DHT22;10096;51.112;6.776;2024-03-22T14:19:12;16.80;99.90
19868;DHT22;10096;51.112;6.776;2024-03-22T14:21:47;16.90;99.90
19868;DHT22;10096;51.112;6.776;2024-03-22T14:24:13;16.90;99.90
19868;DHT22;10096;51.112;6.776;2024-03-22T14:26:40;17.10;99.90
19868;DHT22;10096;51.112;6.776;2024-03-22T14:29:16;16.90;99.90
19868;DHT22;10096;51.112;6.776;2024-03-22T14:31:44;16.90;99.90
19868;DHT22;10096;51.112;6.776;2024-03-22T14:34:12;16.90;99.90
19868;DHT22;10096;51.112;6.776;2024-03-22T14:36:39;16.70;99.90
19868;DHT22;10096;51.112;6.776;2024-03-22T14:39:05;16.60;99.90
19868;DHT22;10096;51.112;6.776;2024-03-22T14:41:33;16.40;99.90
19868;DHT22;10096;51.112;6.776;2024-03-22T14:43:59;16.30;99.90
19868;DHT22;10096;51.112;6.776;2024-03-22T14:46:28;16.30;99.90
19868;DHT22;10096;51.112;6.776;2024-03-22T14:48:54;16.20;99.90
19868;DHT22;10096;51.112;6.776;2024-03-22T14:51:22;16.20;99.90
19868;DHT22;10096;51.112;6.776;2024-03-22T14:53:48;16.20;99.90
19868;DHT22;10096;51.112;6.776;2024-03-22T14:56:18;16.20;99.90
19868;DHT22;10096;51.112;6.776;2024-03-22T14:58:45;16.30;99.90
19868;DHT22;10096;51.112;6.776;2024-03-22T15:01:12;16.30;99.90
19868;DHT22;10096;51.112;6.776;2024-03-22T15:03:44;16.20;99.90
19868;DHT22;10096;51.112;6.776;2024-03-22T15:06:17;16.20;99.90
19868;DHT22;10096;51.112;6.776;2024-03-22T15:08:44;16.00;99.90
19868;DHT22;10096;51.112;6.776;2024-03-22T15:11:13;15.70;99.90
19868;DHT22;10096;51.112;6.776;2024-03-22T15:13:41;15.70;99.90
19868;DHT22;10096;51.112;6.776;2024-03-22T15:16:11;15.40;99.90
19868;DHT22;10096;51.112;6.776;2024-03-22T15:18:40;15.30;99.90
19868;DHT22;10096;51.112;6.776;2024-03-22T15:21:12;15.60;99.90
19868;DHT22;10096;51.112;6.776;2024-03-22T15:23:40;15.20;99.90
19868;DHT22;10096;51.112;6.776;2024-03-22T15:26:07;15.00;99.90
19868;DHT22;10096;51.112;6.776;2024-03-22T15:28:34;15.00;99.90
19868;DHT22;10096;51.112;6.776;2024-03-22T15:31:04;14.70;99.90
19868;DHT22;10096;51.112;6.776;2024-03-22T15:33:29;14.90;99.90
19868;DHT22;10096;51.112;6.776;2024-03-22T15:35:58;14.90;99.90
19868;DHT22;10096;51.112;6.776;2024-03-22T15:38:24;14.80;99.90
19868;DHT22;10096;51.112;6.776;2024-03-22T15:40:51;14.70;99.90
19868;DHT22;10096;51.112;6.776;2024-03-22T15:43:19;14.70;99.90